Time;durP1;ratioP1;P1;durP2;ratioP2;P2;SDS_P1;SDS_P2;PMS_P1;PMS_P2;Temp;Humidity;BMP_temperature;BMP_pressure;BME280_temperature;BME280_humidity;BME280_pressure;Samples;Min_cycle;Max_cycle;Signal;HPM_P1;HPM_P2
2021/03/04 00:01:18;;;;;;;13.08;8.88;;;;;;;1.56;69.24;100986.48;1711077;81;21160;-43
2021/03/04 00:03:47;;;;;;;13.75;9.08;;;;;;;1.55;69.42;100988.25;1705000;81;21128;-41
2021/03/04 00:06:16;;;;;;;11.22;7.83;;;;;;;1.54;69.75;100972.06;1705376;81;21204;-44
2021/03/04 00:08:44;;;;;;;10.45;8.30;;;;;;;1.58;70.04;100972.88;1695119;83;21372;-45
2021/03/04 00:11:12;;;;;;;11.05;8.65;;;;;;;1.59;70.23;100963.67;1714240;81;21177;-44
2021/03/04 00:13:40;;;;;;;14.75;11.33;;;;;;;1.60;70.37;100957.51;1709729;81;21158;-42
2021/03/04 00:16:09;;;;;;;12.93;9.83;;;;;;;1.63;70.57;100959.23;1718282;81;21751;-41
2021/03/04 00:18:37;;;;;;;12.28;9.70;;;;;;;1.66;70.65;100948.23;1695238;82;21173;-40
2021/03/04 00:21:06;;;;;;;13.35;9.65;;;;;;;1.68;70.62;100945.11;1702729;82;21141;-41
2021/03/04 00:23:34;;;;;;;14.45;9.25;;;;;;;1.69;70.58;100949.95;1717605;81;21189;-40
2021/03/04 00:26:02;;;;;;;11.83;9.05;;;;;;;1.69;70.59;100941.61;1708952;81;21180;-40
2021/03/04 00:28:31;;;;;;;12.93;9.80;;;;;;;1.70;70.58;100935.91;1712605;81;21186;-40
2021/03/04 00:30:59;;;;;;;15.75;10.88;;;;;;;1.69;70.58;100933.72;1720227;81;21125;-43
2021/03/04 00:33:28;;;;;;;14.43;9.80;;;;;;;1.70;70.55;100923.61;1706579;82;21155;-41
2021/03/04 00:35:56;;;;;;;12.33;8.25;;;;;;;1.70;70.55;100922.30;1711922;81;21193;-40
2021/03/04 00:38:25;;;;;;;17.35;10.20;;;;;;;1.69;70.66;100922.34;1723085;81;21153;-41
2021/03/04 00:40:53;;;;;;;14.63;9.83;;;;;;;1.69;70.73;100915.77;1710415;82;21363;-41
2021/03/04 00:43:21;;;;;;;14.53;9.63;;;;;;;1.71;70.83;100917.48;1715481;81;22230;-40
2021/03/04 00:45:49;;;;;;;13.28;10.13;;;;;;;1.72;70.88;100915.72;1710126;81;21326;-41
2021/03/04 00:48:18;;;;;;;12.95;9.18;;;;;;;1.72;70.81;100904.74;1709324;81;21319;-43
2021/03/04 00:50:46;;;;;;;13.48;9.28;;;;;;;1.74;70.82;100911.31;1706843;81;21291;-42
2021/03/04 00:53:14;;;;;;;15.90;9.95;;;;;;;1.73;70.80;100901.66;1708851;81;21187;-43
2021/03/04 00:55:42;;;;;;;14.35;9.45;;;;;;;1.75;70.77;100895.08;1717327;81;21455;-42
2021/03/04 00:58:11;;;;;;;16.25;10.93;;;;;;;1.75;70.75;100896.39;1705883;82;21177;-41
2021/03/04 01:00:40;;;;;;;14.68;9.05;;;;;;;1.76;70.73;100891.54;1711146;81;21200;-42
2021/03/04 01:03:08;;;;;;;14.78;10.28;;;;;;;1.74;70.78;100886.33;1704543;81;21173;-43
2021/03/04 01:05:37;;;;;;;13.50;9.93;;;;;;;1.72;70.89;100882.84;1710910;82;21194;-45
2021/03/04 01:08:05;;;;;;;13.65;9.73;;;;;;;1.72;70.99;100880.22;1693266;81;21350;-45
2021/03/04 01:10:39;;;;;;;16.40;11.33;;;;;;;1.71;71.12;100878.45;1696368;82;21164;-42
2021/03/04 01:13:08;;;;;;;16.12;10.50;;;;;;;1.71;71.21;100871.88;1714599;81;21204;-44
2021/03/04 01:15:37;;;;;;;13.15;9.35;;;;;;;1.73;71.29;100867.47;1717656;81;21164;-42
2021/03/04 01:18:07;;;;;;;17.57;11.60;;;;;;;1.73;71.33;100863.08;1702305;82;21304;-42
2021/03/04 01:20:35;;;;;;;17.90;11.78;;;;;;;1.72;71.44;100860.04;1712081;81;21173;-43
2021/03/04 01:23:03;;;;;;;15.32;12.07;;;;;;;1.70;71.55;100859.64;1719744;81;22289;-43
2021/03/04 01:25:32;;;;;;;17.90;12.43;;;;;;;1.69;71.69;100850.03;1720807;81;21194;-44
2021/03/04 01:28:00;;;;;;;14.63;11.53;;;;;;;1.68;71.77;100843.87;1699086;82;21374;-43
2021/03/04 01:30:31;;;;;;;17.15;11.55;;;;;;;1.68;71.86;100834.67;1714267;82;21365;-45
2021/03/04 01:33:01;;;;;;;18.98;12.33;;;;;;;1.71;72.01;100842.95;1717038;81;21145;-42
2021/03/04 01:35:29;;;;;;;19.55;12.07;;;;;;;1.73;72.15;100839.86;1705309;81;21170;-41
2021/03/04 01:37:58;;;;;;;16.67;12.03;;;;;;;1.77;72.20;100834.13;1714670;81;21730;-43
2021/03/04 01:40:26;;;;;;;18.10;11.88;;;;;;;1.79;72.25;100826.63;1706963;81;21169;-43
2021/03/04 01:42:54;;;;;;;18.70;11.80;;;;;;;1.80;72.31;100832.30;1709100;81;21199;-43
2021/03/04 01:45:22;;;;;;;23.50;15.20;;;;;;;1.81;72.32;100822.64;1716027;81;21188;-43
2021/03/04 01:47:53;;;;;;;23.10;15.55;;;;;;;1.83;72.37;100822.17;1707650;82;21327;-44
2021/03/04 01:50:22;;;;;;;21.68;13.68;;;;;;;1.84;72.39;100815.58;1704472;81;21155;-44
2021/03/04 01:52:51;;;;;;;20.90;14.38;;;;;;;1.86;72.39;100811.59;1715478;81;21141;-45
2021/03/04 01:55:20;;;;;;;19.20;12.37;;;;;;;1.85;72.42;100812.05;1704655;81;21163;-42
2021/03/04 01:57:48;;;;;;;20.80;12.98;;;;;;;1.84;72.45;100807.69;1710635;82;21216;-42
2021/03/04 02:00:18;;;;;;;20.02;12.63;;;;;;;1.85;72.56;100801.52;1715742;81;21153;-42
2021/03/04 02:02:47;;;;;;;25.00;13.18;;;;;;;1.87;72.64;100794.94;1720156;81;21165;-42
2021/03/04 02:05:16;;;;;;;23.38;15.20;;;;;;;1.89;72.78;100795.75;1710258;81;21199;-41
2021/03/04 02:08:05;;;;;;;23.27;13.95;;;;;;;1.90;72.88;100797.50;1701603;82;21184;-43
2021/03/04 02:10:49;;;;;;;28.60;16.12;;;;;;;1.91;72.97;100784.30;1711474;81;21192;-44
2021/03/04 02:13:43;;;;;;;22.75;14.07;;;;;;;1.94;72.99;100782.95;1700042;81;21299;-42
2021/03/04 02:16:24;;;;;;;21.85;13.05;;;;;;;1.98;73.01;100782.89;1706174;82;21202;-46
2021/03/04 02:19:00;;;;;;;22.30;14.20;;;;;;;2.01;73.05;100780.20;1706665;82;21129;-44
2021/03/04 02:21:59;;;;;;;27.52;15.58;;;;;;;2.02;73.03;100770.98;1713344;81;21216;-43
2021/03/04 02:25:00;;;;;;;24.27;15.13;;;;;;;2.00;73.12;100768.81;1707609;82;21342;-43
2021/03/04 02:27:28;;;;;;;22.95;14.70;;;;;;;1.99;73.21;100763.15;1715456;81;21348;-43
2021/03/04 02:30:08;;;;;;;22.85;15.38;;;;;;;1.99;73.41;100751.73;1713962;81;22024;-44
2021/03/04 02:32:42;;;;;;;21.90;15.60;;;;;;;1.98;73.52;100748.24;1700740;82;21161;-44
2021/03/04 02:35:19;;;;;;;19.90;13.62;;;;;;;1.98;73.66;100743.44;1699310;82;21564;-45
2021/03/04 02:37:54;;;;;;;23.50;15.40;;;;;;;2.02;73.75;100744.67;1713881;82;21189;-45
2021/03/04 02:40:25;;;;;;;25.23;15.72;;;;;;;2.04;73.77;100740.67;1700451;81;21165;-42
2021/03/04 02:42:53;;;;;;;21.85;14.07;;;;;;;2.06;73.91;100731.85;1683021;83;22252;-42
2021/03/04 02:45:25;;;;;;;24.40;14.18;;;;;;;2.09;73.95;100717.77;1699667;82;21167;-44
2021/03/04 02:47:54;;;;;;;24.52;15.32;;;;;;;2.12;73.99;100719.05;1711617;83;21330;-43
2021/03/04 02:50:23;;;;;;;21.90;14.40;;;;;;;2.14;74.06;100715.91;1709260;81;21166;-42
2021/03/04 02:52:52;;;;;;;25.77;15.50;;;;;;;2.17;74.12;100711.93;1719779;81;21306;-44
2021/03/04 02:55:21;;;;;;;27.07;16.02;;;;;;;2.21;74.18;100704.38;1716240;81;21205;-45
2021/03/04 02:57:49;;;;;;;23.95;14.10;;;;;;;2.26;74.19;100705.59;1703029;82;21634;-41
2021/03/04 03:00:23;;;;;;;23.67;14.38;;;;;;;2.28;74.20;100706.44;1707252;81;21741;-44
2021/03/04 03:02:53;;;;;;;29.30;18.40;;;;;;;2.28;74.19;100702.49;1696510;83;21151;-45
2021/03/04 03:05:23;;;;;;;29.52;17.23;;;;;;;2.28;74.29;100686.24;1705770;82;21157;-45
2021/03/04 03:07:53;;;;;;;27.65;17.05;;;;;;;2.30;74.34;100687.08;1701879;82;21278;-45
2021/03/04 03:10:21;;;;;;;26.40;16.87;;;;;;;2.33;74.38;100687.02;1701564;81;21166;-46
2021/03/04 03:12:50;;;;;;;27.93;16.40;;;;;;;2.34;74.38;100679.55;1708561;82;21382;-43
2021/03/04 03:15:19;;;;;;;28.17;17.27;;;;;;;2.37;74.36;100668.09;1700641;82;21329;-43
2021/03/04 03:17:48;;;;;;;29.87;16.82;;;;;;;2.41;74.37;100669.73;1718678;81;21175;-43
2021/03/04 03:20:18;;;;;;;30.52;16.90;;;;;;;2.44;74.34;100663.53;1721385;81;21161;-43
2021/03/04 03:22:48;;;;;;;27.10;16.77;;;;;;;2.48;74.33;100669.16;1721690;81;21239;-42
2021/03/04 03:25:16;;;;;;;25.68;15.80;;;;;;;2.49;74.28;100662.98;1678172;82;21792;-42
2021/03/04 03:27:45;;;;;;;27.62;16.57;;;;;;;2.50;74.27;100652.42;1708267;81;21202;-44
2021/03/04 03:30:19;;;;;;;28.20;17.20;;;;;;;2.51;74.23;100640.98;1717895;81;21323;-45
2021/03/04 03:33:16;;;;;;;28.30;18.20;;;;;;;2.58;74.21;100639.95;1798596;78;23086;-47
2021/03/04 03:35:45;;;;;;;;;;;;;;;2.57;74.15;100641.28;1741538;80;21137;-46
2021/03/04 03:38:14;;;;;;;24.98;16.57;;;;;;;2.57;74.12;100636.91;1766853;80;20193;-46
2021/03/04 03:40:47;;;;;;;28.07;16.32;;;;;;;2.58;74.08;100633.82;1737126;81;21149;-44
2021/03/04 03:43:16;;;;;;;23.98;15.80;;;;;;;2.59;74.08;100631.13;1706531;82;21300;-45
2021/03/04 03:45:47;;;;;;;28.87;17.60;;;;;;;2.60;73.96;100623.67;1715199;82;21291;-42
2021/03/04 03:48:18;;;;;;;27.58;17.62;;;;;;;2.60;73.92;100619.72;1728812;81;21213;-43
2021/03/04 03:50:51;;;;;;;25.77;16.00;;;;;;;2.63;73.88;100620.55;1736884;81;21375;-41
2021/03/04 03:53:19;;;;;;;27.20;17.52;;;;;;;2.63;73.78;100616.14;1737230;81;21161;-41
2021/03/04 03:55:52;;;;;;;30.52;18.00;;;;;;;2.62;73.71;100612.22;1737701;81;21160;-43
2021/03/04 03:58:22;;;;;;;26.40;17.17;;;;;;;2.64;73.60;100599.89;1711413;82;21207;-44
2021/03/04 04:00:55;;;;;;;33.15;20.82;;;;;;;2.64;73.51;100607.33;1714341;82;21292;-44
2021/03/04 04:03:24;;;;;;;28.75;18.05;;;;;;;2.64;73.33;100595.48;1707799;82;21165;-44
2021/03/04 04:05:53;;;;;;;25.62;16.70;;;;;;;2.60;73.16;100588.58;1714856;82;21178;-41
2021/03/04 04:08:28;;;;;;;25.43;15.53;;;;;;;2.56;73.09;100589.54;1714358;82;21157;-42
2021/03/04 04:10:55;;;;;;;24.15;16.48;;;;;;;2.55;73.07;100582.09;1698445;82;21663;-41
2021/03/04 04:13:23;;;;;;;25.88;15.90;;;;;;;2.55;72.90;100569.39;1711239;81;21331;-42
2021/03/04 04:15:51;;;;;;;24.05;15.88;;;;;;;2.55;72.77;100565.44;1705810;81;21304;-43
2021/03/04 04:18:20;;;;;;;25.27;15.68;;;;;;;2.55;72.62;100562.81;1679565;82;21158;-43
2021/03/04 04:20:50;;;;;;;26.25;16.23;;;;;;;2.54;72.45;100554.48;1661124;84;21214;-44
2021/03/04 04:23:19;;;;;;;34.43;24.95;;;;;;;2.53;72.27;100554.94;1683939;83;21216;-45
2021/03/04 04:25:52;;;;;;;30.48;19.55;;;;;;;2.53;72.18;100548.36;1712377;81;21173;-45
2021/03/04 04:28:22;;;;;;;26.12;18.50;;;;;;;2.51;72.06;100531.72;1692515;83;21200;-44
2021/03/04 04:30:51;;;;;;;23.50;16.10;;;;;;;2.51;71.92;100527.77;1696135;83;21210;-45
2021/03/04 04:33:19;;;;;;;25.25;14.93;;;;;;;2.51;71.75;100522.97;1687768;83;21192;-41
2021/03/04 04:35:48;;;;;;;26.95;16.12;;;;;;;2.49;71.53;100513.77;1692759;83;21700;-40
2021/03/04 04:38:18;;;;;;;24.63;15.78;;;;;;;2.46;71.41;100509.91;1680740;82;21372;-42
2021/03/04 04:40:46;;;;;;;20.97;14.15;;;;;;;2.42;71.26;100508.28;1686640;83;21200;-41
2021/03/04 04:43:15;;;;;;;25.68;16.48;;;;;;;2.37;71.17;100502.26;1667514;83;21208;-40
2021/03/04 04:45:43;;;;;;;22.42;14.80;;;;;;;2.34;71.04;100501.88;1715105;81;21181;-41
2021/03/04 04:48:12;;;;;;;24.37;15.00;;;;;;;2.30;70.78;100500.22;1691630;83;21655;-40
2021/03/04 04:50:40;;;;;;;23.05;15.28;;;;;;;2.30;70.50;100490.14;1692258;82;22147;-40
2021/03/04 04:53:10;;;;;;;23.77;15.43;;;;;;;2.28;70.28;100484.05;1685355;83;21635;-41
2021/03/04 04:55:38;;;;;;;21.80;15.50;;;;;;;2.23;70.09;100472.31;1659263;84;21181;-42
2021/03/04 04:58:06;;;;;;;22.70;15.65;;;;;;;2.20;70.01;100477.66;1694294;82;21189;-41
2021/03/04 05:00:34;;;;;;;23.50;15.28;;;;;;;2.18;70.01;100474.65;1710949;83;21295;-40
2021/03/04 05:03:03;;;;;;;23.67;14.53;;;;;;;2.18;69.98;100468.07;1703464;82;21327;-41
2021/03/04 05:05:31;;;;;;;22.22;14.83;;;;;;;2.16;69.96;100470.27;1718295;82;21189;-40
2021/03/04 05:07:59;;;;;;;25.15;15.70;;;;;;;2.14;69.74;100467.26;1714945;82;21207;-40
2021/03/04 05:10:28;;;;;;;23.32;14.43;;;;;;;2.12;69.62;100466.00;1707989;82;21319;-43
2021/03/04 05:12:57;;;;;;;24.37;15.43;;;;;;;2.12;69.59;100467.77;1687472;83;21206;-42
2021/03/04 05:15:25;;;;;;;24.02;14.68;;;;;;;2.09;69.77;100475.72;1701000;83;21182;-41
2021/03/04 05:17:53;;;;;;;26.70;17.52;;;;;;;2.08;69.97;100471.37;1703886;81;21325;-43
2021/03/04 05:20:22;;;;;;;22.60;16.75;;;;;;;2.05;70.04;100469.67;1675150;83;21340;-40
2021/03/04 05:22:50;;;;;;;26.87;16.62;;;;;;;2.06;70.29;100465.27;1703379;81;21781;-41
2021/03/04 05:25:19;;;;;;;22.62;15.63;;;;;;;2.08;70.37;100457.75;1703328;81;21294;-42
2021/03/04 05:27:47;;;;;;;25.12;16.57;;;;;;;2.09;70.54;100458.19;1690563;83;21189;-41
2021/03/04 05:30:16;;;;;;;27.17;16.90;;;;;;;2.11;70.81;100453.73;1716515;81;21199;-41
2021/03/04 05:35:31;;;;;;;27.75;19.12;;;;;;;2.23;71.23;100443.82;1899403;74;23028;-39
2021/03/04 05:38:00;;;;;;;28.83;17.92;;;;;;;2.24;71.42;100452.12;1862836;75;21103;-43
2021/03/04 05:40:29;;;;;;;26.97;17.27;;;;;;;2.29;71.56;100438.39;1799583;78;21276;-42
2021/03/04 05:42:58;;;;;;;26.17;17.55;;;;;;;2.32;71.62;100435.25;1803180;78;21263;-43
2021/03/04 05:45:26;;;;;;;29.02;19.12;;;;;;;2.36;71.71;100432.93;1789867;78;21285;-41
2021/03/04 05:47:55;;;;;;;28.30;17.17;;;;;;;2.41;71.83;100424.06;1806639;78;21173;-46
2021/03/04 05:50:26;;;;;;;27.50;18.62;;;;;;;2.45;71.91;100414.74;1798989;78;21291;-43
2021/03/04 05:53:07;;;;;;;27.40;17.73;;;;;;;2.50;72.00;100414.62;1806453;78;21155;-42
2021/03/04 05:55:36;;;;;;;27.30;16.97;;;;;;;2.54;72.09;100414.94;1794538;78;21112;-43
2021/03/04 05:58:05;;;;;;;31.62;20.20;;;;;;;2.59;72.11;100406.00;1777125;77;21715;-40
2021/03/04 06:00:33;;;;;;;33.10;19.35;;;;;;;2.67;72.15;100403.20;1787171;79;21770;-42
2021/03/04 06:03:01;;;;;;;27.67;19.35;;;;;;;2.75;72.19;100399.03;1778069;78;22023;-41
2021/03/04 06:05:30;;;;;;;31.93;19.32;;;;;;;2.83;72.20;100389.60;1799061;78;21114;-41
2021/03/04 06:07:58;;;;;;;32.15;19.37;;;;;;;2.93;72.13;100388.43;1806609;78;21687;-40
2021/03/04 06:10:28;;;;;;;29.65;19.45;;;;;;;3.01;72.02;100391.70;1785764;78;21157;-44
2021/03/04 06:12:57;;;;;;;31.62;19.37;;;;;;;3.08;71.93;100385.81;1779312;80;21144;-49
2021/03/04 06:15:26;;;;;;;32.98;20.72;;;;;;;3.14;71.85;100386.94;1782011;78;21145;-40
2021/03/04 06:17:59;;;;;;;31.90;20.00;;;;;;;3.21;71.77;100385.39;1778372;78;21670;-40
2021/03/04 06:20:40;;;;;;;31.23;21.37;;;;;;;3.28;71.62;100386.55;1783145;78;21143;-41
2021/03/04 06:23:09;;;;;;;28.92;19.42;;;;;;;3.33;71.61;100386.81;1804477;78;21379;-41
2021/03/04 06:25:37;;;;;;;29.18;19.40;;;;;;;3.39;71.50;100375.20;1797578;78;21185;-41
2021/03/04 06:28:09;;;;;;;28.67;18.37;;;;;;;3.46;71.35;100372.80;1796583;78;21972;-42
2021/03/04 06:30:41;;;;;;;30.48;20.05;;;;;;;3.51;71.25;100366.92;1793994;77;21157;-42
2021/03/04 06:33:11;;;;;;;29.15;19.20;;;;;;;3.56;71.18;100362.83;1808894;78;21648;-40
2021/03/04 06:35:42;;;;;;;32.00;21.40;;;;;;;3.61;71.16;100356.49;1791049;77;22014;-41
2021/03/04 06:38:19;;;;;;;31.57;19.70;;;;;;;3.66;71.06;100353.71;1786514;77;21576;-38
2021/03/04 06:40:49;;;;;;;30.43;19.75;;;;;;;3.73;71.04;100344.70;1805944;77;21569;-42
2021/03/04 06:43:24;;;;;;;28.85;19.07;;;;;;;3.80;70.89;100332.14;1800315;77;21164;-45
2021/03/04 06:46:04;;;;;;;26.42;17.15;;;;;;;3.86;70.77;100335.92;1793127;77;21128;-42
2021/03/04 06:48:32;;;;;;;28.93;19.03;;;;;;;3.92;70.67;100325.61;1788227;77;21133;-42
2021/03/04 06:51:05;;;;;;;31.85;20.05;;;;;;;3.99;70.48;100318.76;1785059;78;21319;-41
2021/03/04 06:53:33;;;;;;;28.85;19.05;;;;;;;4.03;70.44;100312.47;1797224;77;21287;-43
2021/03/04 06:56:06;;;;;;;28.75;17.70;;;;;;;4.09;70.28;100320.16;1777604;78;21296;-43
2021/03/04 06:58:41;;;;;;;30.75;21.07;;;;;;;4.17;70.20;100309.81;1795352;77;21239;-42
2021/03/04 07:01:17;;;;;;;32.95;20.57;;;;;;;4.25;70.00;100303.80;1775322;78;21273;-42
2021/03/04 07:03:51;;;;;;;28.50;19.45;;;;;;;4.35;69.87;100306.51;1795807;77;21156;-41
2021/03/04 07:06:25;;;;;;;30.25;20.45;;;;;;;4.44;69.77;100299.59;1782713;78;22061;-42
2021/03/04 07:08:55;;;;;;;26.65;18.27;;;;;;;4.54;69.66;100297.48;1782679;77;21183;-42
2021/03/04 07:11:25;;;;;;;31.27;21.25;;;;;;;4.64;69.40;100292.27;1796567;78;21161;-41
2021/03/04 07:13:53;;;;;;;30.85;19.75;;;;;;;4.73;69.13;100287.94;1806977;78;21209;-42
2021/03/04 07:16:40;;;;;;;31.57;20.92;;;;;;;4.82;68.96;100273.54;1787521;78;21146;-43
2021/03/04 07:19:25;;;;;;;29.98;19.95;;;;;;;4.91;68.71;100267.91;1780605;78;21184;-43
2021/03/04 07:22:20;;;;;;;34.18;21.65;;;;;;;5.00;68.32;100262.72;1788466;77;21580;-44
2021/03/04 07:24:55;;;;;;;34.58;21.57;;;;;;;5.10;67.99;100261.91;1772332;77;21156;-41
2021/03/04 07:27:34;;;;;;;36.25;22.60;;;;;;;5.17;67.77;100262.92;1771594;77;21597;-42
2021/03/04 07:30:42;;;;;;;32.93;21.30;;;;;;;5.25;67.41;100248.08;1762895;79;21164;-41
2021/03/04 07:33:24;;;;;;;33.18;22.67;;;;;;;5.34;67.25;100243.75;1797103;77;22154;-43
2021/03/04 07:36:07;;;;;;;50.75;35.90;;;;;;;5.41;67.03;100243.02;1776951;77;21333;-43
2021/03/04 07:38:35;;;;;;;33.48;23.40;;;;;;;5.49;66.72;100237.41;1798646;77;21145;-43
2021/03/04 07:41:07;;;;;;;30.95;21.10;;;;;;;5.57;66.55;100227.39;1766106;79;21171;-47
2021/03/04 07:44:02;;;;;;;35.48;20.80;;;;;;;5.64;66.46;100225.75;1775951;78;21164;-42
2021/03/04 07:47:00;;;;;;;32.55;21.50;;;;;;;5.71;66.23;100226.33;1777805;78;21155;-43
2021/03/04 07:50:30;;;;;;;31.70;21.00;;;;;;;5.79;65.94;100222.03;1761043;78;21136;-43
2021/03/04 07:54:01;;;;;;;35.13;22.55;;;;;;;5.98;65.50;100214.20;1861439;74;24766;-49
2021/03/04 07:56:32;;;;;;;29.70;19.80;;;;;;;6.00;65.32;100210.56;1737917;79;21168;-42
2021/03/04 07:59:52;;;;;;;29.15;19.05;;;;;;;6.10;65.10;100204.41;1750995;79;21738;-41
2021/03/04 08:03:02;;;;;;;32.30;22.10;;;;;;;6.26;64.49;100182.06;1800189;78;24361;-42
2021/03/04 08:05:35;;;;;;;33.83;22.32;;;;;;;6.30;64.32;100182.33;1771312;79;21132;-42
2021/03/04 08:08:15;;;;;;;32.08;20.68;;;;;;;6.38;64.06;100172.70;1774987;79;21113;-43
2021/03/04 08:10:54;;;;;;;26.55;18.80;;;;;;;6.45;63.82;100174.12;1766320;79;22089;-42
2021/03/04 08:13:35;;;;;;;28.80;19.35;;;;;;;6.51;63.55;100167.23;1740446;81;21280;-49
2021/03/04 08:16:12;;;;;;;26.95;18.98;;;;;;;6.57;63.05;100174.88;1744460;80;21328;-44
2021/03/04 08:18:59;;;;;;;28.62;19.73;;;;;;;6.59;63.02;100169.52;1741631;80;21093;-43
2021/03/04 08:21:27;;;;;;;28.95;20.82;;;;;;;6.61;62.85;100159.24;1740718;81;21674;-43
2021/03/04 08:23:55;;;;;;;32.63;20.90;;;;;;;6.64;62.98;100149.81;1745320;80;21137;-43
2021/03/04 08:26:25;;;;;;;30.82;20.02;;;;;;;6.69;62.80;100154.42;1741430;80;21169;-42
2021/03/04 08:29:05;;;;;;;32.85;20.70;;;;;;;6.76;62.67;100151.50;1711114;81;21352;-42
2021/03/04 08:31:33;;;;;;;27.93;20.77;;;;;;;6.81;62.60;100148.17;1687818;83;21185;-42
2021/03/04 08:34:02;;;;;;;28.30;19.23;;;;;;;6.86;62.28;100147.48;1676164;83;21189;-48
2021/03/04 08:36:47;;;;;;;29.63;20.23;;;;;;;6.88;62.27;100137.19;1708895;81;21679;-45
2021/03/04 08:39:21;;;;;;;27.20;18.55;;;;;;;6.93;62.27;100130.34;1707222;82;21158;-43
2021/03/04 08:42:07;;;;;;;25.82;19.10;;;;;;;7.00;62.31;100129.56;1686497;83;21196;-40
2021/03/04 08:45:30;;;;;;;30.40;21.70;;;;;;;7.12;62.12;100120.53;1790414;77;23123;-44
2021/03/04 08:48:10;;;;;;;26.90;19.80;;;;;;;7.14;61.95;100121.31;1775575;79;21931;-41
2021/03/04 08:50:47;;;;;;;28.52;19.50;;;;;;;7.21;61.89;100118.37;1772524;79;21168;-43
2021/03/04 08:53:24;;;;;;;27.25;19.25;;;;;;;7.28;61.77;100115.78;1777564;79;21142;-42
2021/03/04 08:55:56;;;;;;;29.25;19.82;;;;;;;7.34;61.57;100111.03;1771923;79;21901;-41
2021/03/04 08:58:25;;;;;;;27.67;19.07;;;;;;;7.41;61.39;100108.94;1745866;79;21164;-41
2021/03/04 09:01:01;;;;;;;24.10;18.20;;;;;;;7.48;61.17;100111.63;1777494;79;21779;-45
2021/03/04 09:03:41;;;;;;;31.75;20.68;;;;;;;7.53;60.90;100104.33;1777770;79;21244;-42
2021/03/04 09:06:14;;;;;;;30.57;19.05;;;;;;;7.59;60.74;100101.34;1776476;79;21141;-44
2021/03/04 09:08:46;;;;;;;28.30;19.98;;;;;;;7.65;60.49;100103.28;1764104;79;21149;-42
2021/03/04 09:11:34;;;;;;;26.87;20.00;;;;;;;7.71;60.40;100094.98;1764715;79;21156;-42
2021/03/04 09:14:09;;;;;;;27.82;19.52;;;;;;;7.76;60.20;100095.16;1769034;79;21178;-43
2021/03/04 09:16:45;;;;;;;28.07;20.70;;;;;;;7.86;60.09;100089.34;1768340;79;21656;-42
2021/03/04 09:22:17;;;;;;;30.52;20.20;;;;;;;8.04;59.72;100077.75;1801528;78;22972;-46
2021/03/04 09:24:46;;;;;;;25.27;18.95;;;;;;;8.03;59.59;100064.91;1777779;79;21113;-42
2021/03/04 09:27:17;;;;;;;28.30;18.75;;;;;;;8.09;59.54;100063.75;1774418;79;21177;-42
2021/03/04 09:29:43;;;;;;;30.37;20.65;;;;;;;8.14;59.42;100055.06;1746616;79;21149;-43
2021/03/04 09:32:11;;;;;;;30.20;19.70;;;;;;;8.17;59.38;100052.22;1779977;79;21145;-43
2021/03/04 09:34:43;;;;;;;29.92;19.70;;;;;;;8.22;59.18;100042.20;1776114;79;21137;-43
2021/03/04 09:37:15;;;;;;;27.10;19.57;;;;;;;8.27;59.02;100033.98;1776658;79;21141;-45
2021/03/04 09:39:49;;;;;;;31.90;22.67;;;;;;;8.30;58.96;100024.50;1775624;79;21137;-44
2021/03/04 09:42:20;;;;;;;30.02;20.48;;;;;;;8.36;58.89;100023.30;1722626;81;21180;-42
2021/03/04 09:44:55;;;;;;;32.20;22.73;;;;;;;8.41;58.55;100018.12;1741522;81;21134;-42
2021/03/04 09:47:25;;;;;;;32.42;22.48;;;;;;;8.47;58.28;100029.35;1738755;81;22331;-42
2021/03/04 09:49:54;;;;;;;28.65;18.50;;;;;;;8.49;58.27;100028.80;1740722;81;21157;-43
2021/03/04 09:52:27;;;;;;;29.18;19.85;;;;;;;8.53;58.20;100023.23;1743401;81;21692;-41
2021/03/04 09:55:12;;;;;;;27.85;20.23;;;;;;;8.57;58.16;100023.93;1715585;83;21146;-42
2021/03/04 09:57:41;;;;;;;27.25;18.67;;;;;;;8.61;58.05;100013.48;1712967;83;21303;-46
2021/03/04 10:00:19;;;;;;;32.55;19.40;;;;;;;8.66;58.07;100006.95;1742727;80;21174;-43
2021/03/04 10:02:48;;;;;;;25.52;19.27;;;;;;;8.73;57.82;99993.32;1721216;81;21145;-42
2021/03/04 10:05:21;;;;;;;29.18;20.52;;;;;;;8.79;57.31;99997.78;1721671;81;21177;-43
2021/03/04 10:07:50;;;;;;;27.65;19.12;;;;;;;8.82;57.42;99984.78;1707909;82;21167;-45
2021/03/04 10:10:20;;;;;;;29.35;19.87;;;;;;;8.87;57.34;99986.25;1708806;82;21181;-44
2021/03/04 10:12:58;;;;;;;34.15;22.45;;;;;;;8.94;57.17;99980.55;1733167;81;21622;-44
2021/03/04 10:15:38;;;;;;;28.60;21.17;;;;;;;8.98;57.01;99964.33;1728489;81;21137;-45
2021/03/04 10:18:13;;;;;;;27.22;19.12;;;;;;;9.03;56.88;99966.72;1724477;81;21189;-46
2021/03/04 10:20:46;;;;;;;31.05;20.25;;;;;;;9.15;56.61;99960.66;1720595;81;21580;-43
2021/03/04 10:23:16;;;;;;;30.35;20.35;;;;;;;9.15;56.61;99960.66;1767386;80;21379;-46
2021/03/04 10:25:45;;;;;;;28.87;19.98;;;;;;;9.20;56.49;99959.05;1770580;79;21110;-45
2021/03/04 10:28:13;;;;;;;30.88;20.90;;;;;;;9.24;56.32;99960.08;1767371;80;21133;-43
2021/03/04 10:30:41;;;;;;;26.37;19.73;;;;;;;9.28;56.44;99950.13;1769413;80;21700;-44
2021/03/04 10:33:13;;;;;;;29.18;22.00;;;;;;;9.33;56.34;99935.21;1770464;79;21145;-43
2021/03/04 10:35:42;;;;;;;27.22;17.62;;;;;;;9.39;56.10;99945.46;1773666;80;21138;-43
2021/03/04 10:38:10;;;;;;;30.88;22.32;;;;;;;9.43;55.94;99942.52;1772014;80;21957;-43
2021/03/04 10:40:38;;;;;;;25.97;18.98;;;;;;;9.50;56.06;99936.35;1774387;80;21120;-44
2021/03/04 10:43:08;;;;;;;26.30;18.85;;;;;;;9.56;55.70;99931.11;1774816;79;21295;-45
2021/03/04 10:45:53;;;;;;;33.58;22.60;;;;;;;9.59;55.45;99933.09;1772170;80;21665;-46
2021/03/04 10:49:05;;;;;;;33.45;21.68;;;;;;;9.62;55.06;99918.73;1772340;80;21595;-47
2021/03/04 10:51:42;;;;;;;31.07;20.77;;;;;;;9.67;54.83;99903.32;1707520;83;22028;-44
2021/03/04 10:54:10;;;;;;;32.13;19.65;;;;;;;9.67;54.83;99903.32;1704717;82;21138;-44
2021/03/04 10:56:38;;;;;;;29.50;20.37;;;;;;;9.67;54.58;99894.84;1707572;82;21597;-43
2021/03/04 10:59:06;;;;;;;27.70;19.50;;;;;;;9.67;54.46;99900.66;1704558;82;21127;-46
2021/03/04 11:01:35;;;;;;;29.57;21.40;;;;;;;9.71;54.72;99896.38;1701616;82;21142;-44
2021/03/04 11:04:04;;;;;;;23.70;18.17;;;;;;;9.71;54.72;99896.38;1679552;82;21319;-43
2021/03/04 11:06:38;;;;;;;27.87;19.90;;;;;;;9.77;54.13;99880.96;1706043;82;21700;-45
2021/03/04 11:09:44;;;;;;;31.23;21.52;;;;;;;9.82;54.42;99881.03;1710492;83;21177;-42
2021/03/04 11:12:31;;;;;;;26.75;19.87;;;;;;;9.91;54.22;99862.28;1786756;78;24136;-43
2021/03/04 11:14:59;;;;;;;30.83;20.23;;;;;;;9.88;54.23;99870.48;1754177;80;21098;-45
2021/03/04 11:17:27;;;;;;;30.95;20.90;;;;;;;9.89;54.10;99863.70;1755988;80;21135;-44
2021/03/04 11:19:55;;;;;;;26.93;18.62;;;;;;;9.90;53.96;99865.89;1749984;80;21162;-45
2021/03/04 11:22:23;;;;;;;39.45;27.00;;;;;;;9.93;54.02;99855.05;1753833;80;21122;-42
2021/03/04 11:24:51;;;;;;;32.33;23.20;;;;;;;9.93;54.02;99855.05;1752705;80;21474;-44
2021/03/04 11:27:19;;;;;;;31.95;22.73;;;;;;;10.01;54.13;99866.05;1753840;80;21150;-43
2021/03/04 11:29:47;;;;;;;31.93;23.20;;;;;;;10.04;54.08;99851.20;1718565;81;21901;-45
2021/03/04 11:32:16;;;;;;;35.60;24.07;;;;;;;10.09;54.04;99850.89;1719598;81;21176;-45
2021/03/04 11:34:51;;;;;;;30.97;21.30;;;;;;;10.12;54.01;99850.20;1717765;81;21173;-44
2021/03/04 11:37:46;;;;;;;33.23;21.48;;;;;;;10.11;53.90;99845.84;1719265;81;21137;-42
2021/03/04 11:40:34;;;;;;;28.40;19.30;;;;;;;10.10;53.98;99840.12;1705897;82;21137;-47
2021/03/04 11:43:11;;;;;;;28.98;20.92;;;;;;;10.12;54.09;99851.53;1712567;82;21289;-46
2021/03/04 11:45:47;;;;;;;32.93;22.73;;;;;;;10.11;54.12;99844.51;1714020;81;21699;-43
2021/03/04 11:48:16;;;;;;;30.88;21.20;;;;;;;10.13;54.13;99840.39;1707390;82;21279;-44
2021/03/04 11:50:45;;;;;;;27.85;21.35;;;;;;;10.14;54.13;99829.64;1703707;82;22115;-45
2021/03/04 11:53:13;;;;;;;30.65;20.37;;;;;;;10.14;54.19;99824.31;1686333;83;21147;-45